• Join FlightAware (Why Join?)
  • Login
  • US Flag 
03:55PM EST


 

Airport Tracker/Info


-or-


 

Live Flight TrackerFlight Track Log ✈ ASQ4577 ✈ 13-03-2014 ✈ KIAD - CYOW

Flight Track Log - Related Links

Times and Time Zones

All times are in EDT time to prevent confusion due to time zone crossing. See the ASQ4577 flight status page for this flight to view local times or setup timezone preferences in your user account.

Time Position Orientation Groundspeed Altitude Reporting Facility
EDT Latitude Longitude Course Direction KTS MPH feet Rate Location/Type
05:50PM 38.9667 -77.4333 North 155 178 2,000  Level Potomac TRACON
05:51PM 39.0333 -77.4500 North 220 253 4,300 2,520 Climbing Potomac TRACON
05:52PM 39.1000 -77.4500 360° North 225 259 7,400 2,280 Climbing Potomac TRACON
05:54PM 39.4827 -77.4500 North  Level FlightAware Approximate
05:54PM 39.2472 -77.4489 360° North 222 255 12,200  Level Washington Center
05:55PM 39.5926 -77.4500 North  Level FlightAware Approximate
05:55PM 39.3242 -77.4481 360° North 247 284 13,100  Level Washington Center
05:56PM 39.4075 -77.4503 359° North 272 313 14,100 960 Climbing Washington Center
05:57PM 39.4950 -77.4525 359° North 297 342 15,100 1,200 Climbing Washington Center
05:58PM 39.5867 -77.4550 359° North 311 358 16,500 1,200 Climbing Washington Center
05:59PM 39.6342 -77.4539 North 325 374 17,100 1,140 Climbing New York Center
06:00PM 39.7367 -77.4503 North 334 384 18,400 1,200 Climbing New York Center
06:01PM 39.8178 -77.4553 357° North 328 377 19,500 1,080 Climbing New York Center
06:02PM 39.9117 -77.4533 North 328 377 20,600 1,080 Climbing New York Center
06:03PM 40.0056 -77.4514 North 334 384 21,700 1,020 Climbing New York Center
06:04PM 40.1017 -77.4500 North 334 384 22,700 900 Climbing New York Center
06:05PM 40.2000 -77.4458 North 339 390 23,600 960 Climbing New York Center
06:06PM 40.2936 -77.4467 360° North 339 390 24,700 1,020 Climbing New York Center
06:07PM 40.3875 -77.4447 North 339 390 25,700 960 Climbing New York Center
06:08PM 40.4761 -77.4261 North 328 377 26,700 960 Climbing New York Center
06:09PM 40.5636 -77.3936 16° North 323 372 27,700 1,020 Climbing New York Center
06:10PM 40.6636 -77.3567 16° North 328 377 28,800 840 Climbing New York Center
06:11PM 40.7508 -77.3239 16° North 328 377 29,500 660 Climbing New York Center
06:12PM 40.8444 -77.2889 16° North 334 384 30,200 660 Climbing New York Center
06:13PM 40.9381 -77.2539 16° North 339 390 30,900 720 Climbing New York Center
06:14PM 41.0358 -77.2192 15° North 352 405 31,700 720 Climbing New York Center
06:15PM 41.1339 -77.1789 17° North 357 411 32,400 900 Climbing New York Center
06:17PM 41.3336 -77.1067 15° North 367 422 34,400 840 Climbing New York Center
06:18PM 41.4294 -77.0686 17° North 367 422 35,000 300 Climbing New York Center
06:19PM 41.5228 -77.0331 16° North 367 422 35,000  Level New York Center
06:20PM 41.6311 -76.9933 15° North 385 443 35,000  Level New York Center
06:21PM 41.7419 -76.9481 17° North 396 456 35,000  Level New York Center
06:22PM 41.8567 -76.9056 15° North 407 468 35,000  Level New York Center
06:22PM 41.9242 -76.8775 17° North 427 491 35,000  Level Cleveland Center
06:23PM 42.0383 -76.8331 16° North 427 491 35,000  Level Cleveland Center
06:24PM 42.1539 -76.7889 16° North 428 493 35,000  Level Cleveland Center
06:26PM 42.2936 -76.7336 16° North 435 501 35,000  Level Cleveland Center
06:27PM 42.4083 -76.6886 16° North 435 501 35,000  Level Cleveland Center
06:27PM 42.5011 -76.6531 16° North 432 497 35,000  Level Boston Center
06:28PM 42.6169 -76.6069 16° North 434 499 35,000  Level Boston Center
06:29PM 42.7322 -76.5617 16° North 435 501 35,000  Level Boston Center
06:30PM 42.8511 -76.5139 16° North 433 498 35,000  Level Boston Center
06:31PM 42.9675 -76.4672 16° North 435 501 35,000  Level Boston Center
06:32PM 43.0828 -76.4203 17° North 432 497 35,000  Level Boston Center
06:33PM 43.1994 -76.3742 16° North 435 501 35,000  Level Boston Center
06:34PM 43.3153 -76.3253 17° North 435 501 35,000  Level Boston Center
06:35PM 43.4306 -76.2783 16° North 433 498 35,000  Level Boston Center
06:36PM 43.5481 -76.2317 16° North 435 501 35,000  Level Boston Center
06:38PM 43.6647 -76.1825 17° North 436 502 35,000  Level Boston Center
06:39PM 43.7822 -76.1336 17° North 438 504 35,000  Level Boston Center
06:40PM 43.9203 -76.0772 16° North 432 497 35,000  Level Boston Center
06:41PM 44.0325 -76.0114 23° Northeast 437 503 35,000 -540 Level Boston Center
06:42PM 44.1422 -75.9400 25° Northeast 436 502 34,000 -1,500 Descending Boston Center
06:43PM 44.2511 -75.8681 25° Northeast 433 498 32,000 -1,740 Descending Boston Center
06:44PM 44.3547 -75.8019 25° Northeast 414 476 30,500 -1,800 Descending Boston Center
06:45PM 44.4600 -75.7322 25° Northeast 416 479 28,400 -2,940 Descending Boston Center
06:46PM 44.5608 -75.6644 26° Northeast 405 466 24,600 -4,380 Descending Boston Center
06:47PM 44.6550 -75.6025 25° Northeast 380 437 19,500 -5,400 Descending Boston Center
06:48PM 44.7500 -75.5167 33° Northeast 340 391 12,800 -4,140 Descending Montreal Center
06:49PM 44.8333 -75.4667 23° Northeast 300 345 10,500 -2,160 Descending Montreal Center
06:50PM 44.9000 -75.4167 28° Northeast 250 288 8,500 -1,680 Descending Montreal Center
06:51PM 44.9500 -75.4000 13° North 230 265 7,200 -1,500 Descending Montreal Center
06:52PM 45.0167 -75.4167 350° North 230 265 5,600 -1,320 Descending Montreal Center
06:53PM 45.0833 -75.4167 360° North 200 230 4,600 -960 Descending Montreal Center
06:54PM 45.1167 -75.4167 360° North 190 219 3,700 -780 Descending Montreal Center
06:55PM 45.1833 -75.4500 341° North 170 196 3,100 -420 Descending Montreal Center
06:56PM 45.2000 -75.4667 325° Northwest 160 184 2,900 -360 Descending Montreal Center
06:57PM 45.2333 -75.5333 305° West 170 196 2,400 -600 Descending Montreal Center
06:58PM 45.2500 -75.5833 295° West 140 161 1,800 -600 Descending Montreal Center
06:59PM 45.2667 -75.6167 305° West 110 127 1,200 -600 Descending Montreal Center